Time;durP1;ratioP1;P1;durP2;ratioP2;P2;SDS_P1;SDS_P2;PMS_P1;PMS_P2;Temp;Humidity;BMP_temperature;BMP_pressure;BME280_temperature;BME280_humidity;BME280_pressure;Samples;Min_cycle;Max_cycle;Signal;HPM_P1;HPM_P2
2023/07/25 00:00:09;;;;;;;;;;;14.10;99.90;;;;;;5034437;28;19921;-85
2023/07/25 00:02:35;;;;;;;;;;;14.10;99.90;;;;;;5034621;28;19913;-85
2023/07/25 00:05:01;;;;;;;;;;;14.10;99.90;;;;;;5034792;28;20298;-84
2023/07/25 00:07:26;;;;;;;;;;;14.10;99.90;;;;;;5038642;28;19928;-84
2023/07/25 00:09:52;;;;;;;;;;;14.10;99.90;;;;;;5045197;28;19920;-85
2023/07/25 00:12:17;;;;;;;;;;;14.00;99.90;;;;;;5051467;28;20572;-85
2023/07/25 00:14:43;;;;;;;;;;;14.00;99.90;;;;;;5047410;28;19924;-86
2023/07/25 00:17:08;;;;;;;;;;;14.00;99.90;;;;;;5035636;28;19917;-85
2023/07/25 00:19:33;;;;;;;;;;;13.90;99.90;;;;;;5037555;28;19927;-84
2023/07/25 00:21:59;;;;;;;;;;;13.90;99.90;;;;;;5053281;28;19939;-85
2023/07/25 00:24:24;;;;;;;;;;;13.80;99.90;;;;;;5046385;28;20003;-86
2023/07/25 00:26:50;;;;;;;;;;;13.80;99.90;;;;;;5036357;28;19917;-86
2023/07/25 00:29:15;;;;;;;;;;;13.80;99.90;;;;;;5052649;28;19920;-86
2023/07/25 00:31:41;;;;;;;;;;;13.70;99.90;;;;;;5053191;28;19931;-86
2023/07/25 00:34:06;;;;;;;;;;;13.70;99.90;;;;;;5048191;28;19956;-86
2023/07/25 00:36:32;;;;;;;;;;;13.60;99.90;;;;;;5041808;28;20328;-86
2023/07/25 00:38:57;;;;;;;;;;;13.60;99.90;;;;;;5052947;28;19927;-84
2023/07/25 00:41:23;;;;;;;;;;;13.60;99.90;;;;;;5036145;28;20366;-86
2023/07/25 00:43:48;;;;;;;;;;;13.60;99.90;;;;;;5052550;28;19935;-85
2023/07/25 00:46:14;;;;;;;;;;;13.60;99.90;;;;;;5036955;28;19941;-85
2023/07/25 00:48:40;;;;;;;;;;;13.60;99.90;;;;;;5036798;28;20390;-84
2023/07/25 00:51:06;;;;;;;;;;;13.60;99.90;;;;;;5036943;28;19932;-85
2023/07/25 00:53:31;;;;;;;;;;;13.60;99.90;;;;;;5036471;28;20359;-85
2023/07/25 00:55:57;;;;;;;;;;;13.60;99.90;;;;;;5036033;28;19916;-84
2023/07/25 00:58:22;;;;;;;;;;;13.50;99.90;;;;;;5069340;28;19920;-85
2023/07/25 01:00:48;;;;;;;;;;;13.50;99.90;;;;;;5053551;28;19978;-85
2023/07/25 01:03:13;;;;;;;;;;;13.50;99.90;;;;;;5052945;28;19939;-86
2023/07/25 01:05:41;;;;;;;;;;;13.50;99.90;;;;;;5038511;28;19948;-85
2023/07/25 01:08:07;;;;;;;;;;;13.50;99.90;;;;;;5053723;28;19931;-85
2023/07/25 01:10:34;;;;;;;;;;;13.50;99.90;;;;;;5035207;28;19921;-86
2023/07/25 01:13:00;;;;;;;;;;;13.40;99.90;;;;;;5037631;28;19916;-85
2023/07/25 01:15:26;;;;;;;;;;;13.40;99.90;;;;;;5034093;28;19932;-85
2023/07/25 01:17:51;;;;;;;;;;;13.30;99.90;;;;;;5046407;28;19917;-85
2023/07/25 01:20:17;;;;;;;;;;;13.30;99.90;;;;;;5035358;28;19917;-85
2023/07/25 01:22:44;;;;;;;;;;;13.30;99.90;;;;;;5034886;28;20291;-84
2023/07/25 01:25:10;;;;;;;;;;;13.20;99.90;;;;;;5034206;28;20471;-85
2023/07/25 01:27:36;;;;;;;;;;;13.20;99.90;;;;;;5036229;28;19912;-84
2023/07/25 01:30:02;;;;;;;;;;;13.20;99.90;;;;;;5035425;28;20363;-87
2023/07/25 01:32:27;;;;;;;;;;;13.20;99.90;;;;;;5051289;28;19975;-85
2023/07/25 01:34:53;;;;;;;;;;;13.20;99.90;;;;;;5048454;28;19920;-85
2023/07/25 01:37:19;;;;;;;;;;;13.20;99.90;;;;;;5034412;28;19979;-85
2023/07/25 01:39:45;;;;;;;;;;;13.20;99.90;;;;;;5034917;28;20010;-84
2023/07/25 01:42:10;;;;;;;;;;;13.20;99.90;;;;;;5050996;28;19939;-86
2023/07/25 01:44:36;;;;;;;;;;;13.20;99.90;;;;;;5034263;28;19913;-85
2023/07/25 01:47:01;;;;;;;;;;;13.20;99.90;;;;;;5052388;28;19967;-86
2023/07/25 01:49:27;;;;;;;;;;;13.10;99.90;;;;;;5051714;28;19920;-84
2023/07/25 01:51:52;;;;;;;;;;;13.20;99.90;;;;;;5035379;28;19932;-86
2023/07/25 01:54:18;;;;;;;;;;;13.10;99.90;;;;;;5033743;28;19913;-85
2023/07/25 01:56:43;;;;;;;;;;;13.10;99.90;;;;;;5035254;28;19916;-86
2023/07/25 01:59:09;;;;;;;;;;;13.10;99.90;;;;;;5036676;28;20382;-86
2023/07/25 02:01:34;;;;;;;;;;;13.10;99.90;;;;;;5045541;28;19920;-86
2023/07/25 02:03:59;;;;;;;;;;;13.10;99.90;;;;;;5052501;28;19923;-85
2023/07/25 02:06:25;;;;;;;;;;;13.20;99.90;;;;;;5034528;28;20386;-86
2023/07/25 02:08:53;;;;;;;;;;;13.10;99.90;;;;;;5035256;28;20573;-86
2023/07/25 02:11:18;;;;;;;;;;;13.20;99.90;;;;;;5035839;28;19978;-85
2023/07/25 02:13:44;;;;;;;;;;;13.20;99.90;;;;;;5045747;28;20416;-87
2023/07/25 02:16:09;;;;;;;;;;;13.20;99.90;;;;;;5050985;28;19917;-86
2023/07/25 02:18:35;;;;;;;;;;;13.20;99.90;;;;;;5036131;28;20024;-85
2023/07/25 02:21:00;;;;;;;;;;;13.20;99.90;;;;;;5035333;28;20003;-86
2023/07/25 02:23:26;;;;;;;;;;;13.20;99.90;;;;;;5033455;28;20378;-86
2023/07/25 02:25:51;;;;;;;;;;;13.20;99.90;;;;;;5043004;28;19913;-86
2023/07/25 02:28:17;;;;;;;;;;;13.20;99.90;;;;;;5050104;28;19921;-86
2023/07/25 02:30:42;;;;;;;;;;;13.20;99.90;;;;;;5034988;28;19936;-86
2023/07/25 02:33:08;;;;;;;;;;;13.20;99.90;;;;;;5051844;28;19917;-87
2023/07/25 02:35:33;;;;;;;;;;;13.10;99.90;;;;;;5036083;28;19920;-87
2023/07/25 02:37:59;;;;;;;;;;;13.10;99.90;;;;;;5051124;28;20366;-86
2023/07/25 02:40:24;;;;;;;;;;;13.10;99.90;;;;;;5034076;28;19917;-86
2023/07/25 02:42:49;;;;;;;;;;;13.00;99.90;;;;;;5034506;28;20425;-86
2023/07/25 02:45:15;;;;;;;;;;;13.00;99.90;;;;;;5035801;28;19917;-86
2023/07/25 02:47:40;;;;;;;;;;;12.90;99.90;;;;;;5051312;28;19929;-86
2023/07/25 02:50:06;;;;;;;;;;;12.90;99.90;;;;;;5045025;28;20327;-87
2023/07/25 02:52:31;;;;;;;;;;;12.80;99.90;;;;;;5034846;28;19917;-86
2023/07/25 02:54:57;;;;;;;;;;;12.80;99.90;;;;;;5035527;28;19921;-87
2023/07/25 02:57:22;;;;;;;;;;;12.70;99.90;;;;;;5035017;28;20034;-85
2023/07/25 02:59:48;;;;;;;;;;;12.70;99.90;;;;;;5035113;28;19936;-86
2023/07/25 03:02:13;;;;;;;;;;;12.70;99.90;;;;;;5035916;28;20036;-86
2023/07/25 03:04:39;;;;;;;;;;;12.70;99.90;;;;;;5050705;28;19928;-86
2023/07/25 03:07:05;;;;;;;;;;;12.70;99.90;;;;;;5032669;28;19921;-84
2023/07/25 03:09:30;;;;;;;;;;;12.70;99.90;;;;;;5037621;28;19916;-85
2023/07/25 03:11:56;;;;;;;;;;;12.70;99.90;;;;;;5040497;28;19925;-84
2023/07/25 03:14:21;;;;;;;;;;;12.60;99.90;;;;;;5038748;28;19921;-85
2023/07/25 03:16:47;;;;;;;;;;;12.70;99.90;;;;;;5053010;28;19921;-86
2023/07/25 03:19:12;;;;;;;;;;;12.70;99.90;;;;;;5033380;28;20578;-85
2023/07/25 03:21:38;;;;;;;;;;;12.70;99.90;;;;;;5049040;28;19920;-86
2023/07/25 03:24:04;;;;;;;;;;;12.70;99.90;;;;;;5033808;28;19913;-86
2023/07/25 03:26:29;;;;;;;;;;;12.60;99.90;;;;;;5042016;28;21787;-86
2023/07/25 03:28:54;;;;;;;;;;;12.60;99.90;;;;;;5050537;28;19932;-86
2023/07/25 03:31:20;;;;;;;;;;;12.60;99.90;;;;;;5034597;28;19921;-85
2023/07/25 03:33:45;;;;;;;;;;;12.60;99.90;;;;;;5044423;28;19917;-86
2023/07/25 03:36:11;;;;;;;;;;;12.60;99.90;;;;;;5034085;28;20004;-87
2023/07/25 03:38:36;;;;;;;;;;;12.60;99.90;;;;;;5035322;28;19966;-87
2023/07/25 03:41:02;;;;;;;;;;;12.50;99.90;;;;;;5049102;28;19960;-86
2023/07/25 03:43:27;;;;;;;;;;;12.50;99.90;;;;;;5034226;28;20610;-87
2023/07/25 03:45:54;;;;;;;;;;;12.60;99.90;;;;;;5034921;28;19960;-87
2023/07/25 03:48:19;;;;;;;;;;;12.50;99.90;;;;;;5034724;28;20426;-85
2023/07/25 03:50:45;;;;;;;;;;;12.60;99.90;;;;;;5032694;28;19929;-87
2023/07/25 03:53:10;;;;;;;;;;;12.60;99.90;;;;;;5049568;28;19917;-85
2023/07/25 03:55:36;;;;;;;;;;;12.60;99.90;;;;;;5034827;28;19966;-87
2023/07/25 03:58:01;;;;;;;;;;;12.60;99.90;;;;;;5050287;28;19916;-87
2023/07/25 04:00:27;;;;;;;;;;;12.60;99.90;;;;;;5044636;28;19921;-86
2023/07/25 04:02:52;;;;;;;;;;;12.60;99.90;;;;;;5033913;28;19958;-86
2023/07/25 04:05:18;;;;;;;;;;;12.60;99.90;;;;;;5032566;28;19925;-86
2023/07/25 04:07:43;;;;;;;;;;;12.60;99.90;;;;;;5033053;28;20675;-86
2023/07/25 04:10:09;;;;;;;;;;;12.60;99.90;;;;;;5034263;28;19920;-86
2023/07/25 04:12:34;;;;;;;;;;;12.60;99.90;;;;;;5033358;28;19917;-86
2023/07/25 04:15:00;;;;;;;;;;;12.60;99.90;;;;;;5039186;28;19920;-85
2023/07/25 04:17:25;;;;;;;;;;;12.60;99.90;;;;;;5035775;28;19917;-86
2023/07/25 04:19:51;;;;;;;;;;;12.60;99.90;;;;;;5031990;28;20580;-86
2023/07/25 04:22:16;;;;;;;;;;;12.60;99.90;;;;;;5042003;28;19916;-86
2023/07/25 04:24:42;;;;;;;;;;;12.60;99.90;;;;;;5042303;28;19917;-86
2023/07/25 04:27:07;;;;;;;;;;;12.50;99.90;;;;;;5034230;28;19921;-86
2023/07/25 04:29:33;;;;;;;;;;;12.50;99.90;;;;;;5035849;28;20302;-86
2023/07/25 04:31:58;;;;;;;;;;;12.50;99.90;;;;;;5050443;28;20322;-86
2023/07/25 04:34:24;;;;;;;;;;;12.50;99.90;;;;;;5041812;28;20008;-85
2023/07/25 04:36:49;;;;;;;;;;;12.50;99.90;;;;;;5032359;28;20364;-86
2023/07/25 04:39:15;;;;;;;;;;;12.50;99.90;;;;;;5030191;28;19921;-86
2023/07/25 04:41:40;;;;;;;;;;;12.50;99.90;;;;;;5041331;28;19917;-86
2023/07/25 04:44:06;;;;;;;;;;;12.50;99.90;;;;;;5042654;28;19962;-86
2023/07/25 04:46:32;;;;;;;;;;;12.50;99.90;;;;;;5048020;28;19920;-86
2023/07/25 04:48:57;;;;;;;;;;;12.40;99.90;;;;;;5050761;28;19925;-86
2023/07/25 04:51:23;;;;;;;;;;;12.50;99.90;;;;;;5033964;28;19935;-86
2023/07/25 04:53:49;;;;;;;;;;;12.50;99.90;;;;;;5033630;28;19924;-86
2023/07/25 04:56:14;;;;;;;;;;;12.50;99.90;;;;;;5034728;28;19912;-85
2023/07/25 04:58:43;;;;;;;;;;;12.50;99.90;;;;;;5037603;28;19956;-87
2023/07/25 05:01:09;;;;;;;;;;;12.50;99.90;;;;;;5037233;28;19921;-85
2023/07/25 05:03:35;;;;;;;;;;;12.60;99.90;;;;;;5049800;28;19940;-84
2023/07/25 05:06:00;;;;;;;;;;;12.60;99.90;;;;;;5050786;28;20099;-86
2023/07/25 05:08:26;;;;;;;;;;;12.70;99.90;;;;;;5034244;28;19939;-85
2023/07/25 05:10:52;;;;;;;;;;;12.70;99.90;;;;;;5036001;28;20674;-85
2023/07/25 05:13:17;;;;;;;;;;;12.80;99.90;;;;;;5035331;28;19916;-84
2023/07/25 05:15:43;;;;;;;;;;;12.80;99.90;;;;;;5034682;28;20002;-84
2023/07/25 05:18:08;;;;;;;;;;;12.90;99.90;;;;;;5034488;28;19917;-84
2023/07/25 05:20:34;;;;;;;;;;;13.00;99.90;;;;;;5035339;28;19913;-85
2023/07/25 05:22:59;;;;;;;;;;;13.10;99.90;;;;;;5050107;28;19912;-85
2023/07/25 05:25:25;;;;;;;;;;;13.20;99.90;;;;;;5049106;28;19998;-84
2023/07/25 05:27:50;;;;;;;;;;;13.30;99.90;;;;;;5050901;28;19917;-85
2023/07/25 05:30:16;;;;;;;;;;;13.40;99.90;;;;;;5035832;28;20303;-85
2023/07/25 05:32:41;;;;;;;;;;;13.50;99.90;;;;;;5034355;28;19916;-86
2023/07/25 05:35:07;;;;;;;;;;;13.60;99.90;;;;;;5034133;28;19921;-86
2023/07/25 05:37:33;;;;;;;;;;;13.70;99.90;;;;;;5036056;28;19928;-85
2023/07/25 05:39:59;;;;;;;;;;;13.90;99.90;;;;;;5034948;28;19913;-85
2023/07/25 05:42:24;;;;;;;;;;;13.90;99.90;;;;;;5050811;28;19921;-85
2023/07/25 05:44:50;;;;;;;;;;;14.00;99.90;;;;;;5038076;28;19921;-86
2023/07/25 05:47:15;;;;;;;;;;;14.10;99.90;;;;;;5036517;28;20390;-85
2023/07/25 05:49:41;;;;;;;;;;;14.20;99.90;;;;;;5036048;28;19952;-86
2023/07/25 05:52:06;;;;;;;;;;;14.30;99.90;;;;;;5035820;28;20429;-85
2023/07/25 05:54:32;;;;;;;;;;;14.30;99.90;;;;;;5053233;28;20008;-86
2023/07/25 05:56:57;;;;;;;;;;;14.30;99.90;;;;;;5037656;28;19923;-86
2023/07/25 05:59:23;;;;;;;;;;;14.30;99.90;;;;;;5053805;28;19925;-86
2023/07/25 06:01:48;;;;;;;;;;;14.40;99.90;;;;;;5036717;28;19967;-85
2023/07/25 06:04:15;;;;;;;;;;;14.50;99.90;;;;;;5036362;28;20397;-85
2023/07/25 06:06:40;;;;;;;;;;;14.60;99.90;;;;;;5052800;28;19925;-85
2023/07/25 06:09:06;;;;;;;;;;;14.70;99.90;;;;;;5052203;28;19917;-85
2023/07/25 06:11:31;;;;;;;;;;;14.70;99.90;;;;;;5046785;28;19927;-86
2023/07/25 06:13:57;;;;;;;;;;;14.70;99.90;;;;;;5053050;28;20905;-85
2023/07/25 06:16:22;;;;;;;;;;;14.60;99.90;;;;;;5039488;28;19999;-85
2023/07/25 06:18:48;;;;;;;;;;;14.50;99.90;;;;;;5036743;28;20375;-86
2023/07/25 06:21:14;;;;;;;;;;;14.50;99.90;;;;;;5050564;28;19955;-86
2023/07/25 06:23:39;;;;;;;;;;;14.40;99.90;;;;;;5050516;28;19924;-85
2023/07/25 06:26:04;;;;;;;;;;;14.50;99.90;;;;;;5044043;28;19923;-86
2023/07/25 06:28:30;;;;;;;;;;;14.50;99.90;;;;;;5034483;28;20003;-86
2023/07/25 06:30:55;;;;;;;;;;;14.50;99.90;;;;;;5034031;28;20019;-86
2023/07/25 06:33:21;;;;;;;;;;;14.50;99.90;;;;;;5050671;28;19924;-86
2023/07/25 06:35:46;;;;;;;;;;;14.50;99.90;;;;;;5050508;28;20350;-86
2023/07/25 06:38:12;;;;;;;;;;;14.50;99.90;;;;;;5036078;28;19931;-86
2023/07/25 06:40:37;;;;;;;;;;;14.60;99.90;;;;;;5050891;28;20315;-85
2023/07/25 06:43:03;;;;;;;;;;;14.60;99.90;;;;;;5045682;28;19923;-86
2023/07/25 06:45:28;;;;;;;;;;;14.70;99.90;;;;;;5034934;28;19956;-86
2023/07/25 06:47:54;;;;;;;;;;;14.70;99.90;;;;;;5044993;28;19917;-86
2023/07/25 06:50:20;;;;;;;;;;;14.70;99.90;;;;;;5048935;28;19975;-86
2023/07/25 06:52:46;;;;;;;;;;;14.80;99.90;;;;;;5044318;28;21045;-87
2023/07/25 06:55:11;;;;;;;;;;;15.00;99.90;;;;;;5043676;28;19923;-87
2023/07/25 06:57:37;;;;;;;;;;;15.20;99.90;;;;;;5044975;28;19912;-87
2023/07/25 07:00:03;;;;;;;;;;;15.40;99.90;;;;;;5036527;28;19917;-87
2023/07/25 07:02:28;;;;;;;;;;;15.50;99.90;;;;;;5034419;28;19921;-86
2023/07/25 07:04:56;;;;;;;;;;;15.50;99.90;;;;;;5048946;28;19917;-87
2023/07/25 07:07:22;;;;;;;;;;;15.50;99.90;;;;;;5049330;28;20294;-86
2023/07/25 07:09:47;;;;;;;;;;;15.50;99.90;;;;;;5037052;28;19920;-86
2023/07/25 07:12:13;;;;;;;;;;;15.40;99.90;;;;;;5048973;28;20004;-87
2023/07/25 07:14:40;;;;;;;;;;;15.40;99.90;;;;;;5049179;28;19948;-84
2023/07/25 07:17:07;;;;;;;;;;;15.40;99.90;;;;;;5041292;28;19943;-87
2023/07/25 07:19:32;;;;;;;;;;;15.50;99.90;;;;;;5037352;28;20386;-85
2023/07/25 07:21:58;;;;;;;;;;;15.50;99.90;;;;;;5033546;28;20019;-87
2023/07/25 07:24:23;;;;;;;;;;;15.60;99.90;;;;;;5033488;28;19917;-85
2023/07/25 07:26:49;;;;;;;;;;;15.70;99.90;;;;;;5043136;28;19921;-85
2023/07/25 07:29:14;;;;;;;;;;;15.80;99.90;;;;;;5036697;28;19917;-86
2023/07/25 07:31:39;;;;;;;;;;;15.90;99.90;;;;;;5042945;28;19968;-85
2023/07/25 07:34:15;;;;;;;;;;;16.00;99.90;;;;;;5031870;28;19917;-85
2023/07/25 07:36:41;;;;;;;;;;;16.10;99.90;;;;;;5034813;28;19917;-86
2023/07/25 07:39:07;;;;;;;;;;;16.20;99.90;;;;;;5052375;28;20290;-86
2023/07/25 07:41:33;;;;;;;;;;;16.30;99.90;;;;;;5038452;28;19936;-88
2023/07/25 07:43:58;;;;;;;;;;;16.40;99.90;;;;;;5038875;28;19979;-89
2023/07/25 07:46:26;;;;;;;;;;;16.50;99.90;;;;;;5033939;28;20299;-87
2023/07/25 07:48:51;;;;;;;;;;;16.60;99.90;;;;;;5051246;28;19952;-86
2023/07/25 07:51:17;;;;;;;;;;;16.70;99.90;;;;;;5036770;28;20182;-89
2023/07/25 07:53:42;;;;;;;;;;;16.90;99.90;;;;;;5034490;28;19967;-88
2023/07/25 07:56:07;;;;;;;;;;;17.00;99.90;;;;;;5051790;28;20430;-90
2023/07/25 07:58:33;;;;;;;;;;;17.20;99.90;;;;;;5053129;28;20003;-89
2023/07/25 08:00:58;;;;;;;;;;;17.30;99.90;;;;;;5053157;28;20232;-87
2023/07/25 08:03:24;;;;;;;;;;;17.50;99.90;;;;;;5035139;28;19917;-88
2023/07/25 08:05:56;;;;;;;;;;;17.60;99.90;;;;;;5051689;28;19943;-90
2023/07/25 08:08:22;;;;;;;;;;;17.80;99.90;;;;;;5048973;28;19920;-88
2023/07/25 08:10:47;;;;;;;;;;;17.80;99.90;;;;;;5050858;28;19983;-87
2023/07/25 08:13:13;;;;;;;;;;;17.70;99.90;;;;;;5036659;28;19917;-88
2023/07/25 08:15:38;;;;;;;;;;;17.70;99.90;;;;;;5033714;28;19952;-88
2023/07/25 08:18:03;;;;;;;;;;;17.70;99.90;;;;;;5033289;28;21874;-88
2023/07/25 08:20:29;;;;;;;;;;;17.90;99.90;;;;;;5033371;28;19917;-87
2023/07/25 08:22:54;;;;;;;;;;;18.10;99.90;;;;;;5043374;28;19971;-89
2023/07/25 08:25:20;;;;;;;;;;;18.20;99.90;;;;;;5043407;28;19913;-86
2023/07/25 08:27:45;;;;;;;;;;;18.40;99.90;;;;;;5052379;28;20370;-85
2023/07/25 08:30:11;;;;;;;;;;;18.40;99.90;;;;;;5037902;28;20470;-86
2023/07/25 08:32:37;;;;;;;;;;;18.50;99.90;;;;;;5035614;28;19917;-85
2023/07/25 08:35:02;;;;;;;;;;;18.50;99.90;;;;;;5035933;28;19913;-85
2023/07/25 08:37:28;;;;;;;;;;;18.40;99.90;;;;;;5036561;28;19975;-84
2023/07/25 08:39:53;;;;;;;;;;;18.50;99.90;;;;;;5036201;28;20019;-84
2023/07/25 08:42:19;;;;;;;;;;;18.50;99.90;;;;;;5038155;28;19920;-88
2023/07/25 08:44:47;;;;;;;;;;;18.50;99.90;;;;;;5048222;28;20370;-88
2023/07/25 08:47:16;;;;;;;;;;;18.40;99.90;;;;;;5038653;28;19917;-88
2023/07/25 08:49:44;;;;;;;;;;;18.30;99.90;;;;;;5038430;28;19916;-89
2023/07/25 08:52:11;;;;;;;;;;;18.00;99.90;;;;;;5054667;28;20298;-88
2023/07/25 08:54:37;;;;;;;;;;;17.90;99.90;;;;;;5055317;28;20441;-87
2023/07/25 08:57:03;;;;;;;;;;;17.90;99.90;;;;;;5043252;28;19960;-87
2023/07/25 08:59:29;;;;;;;;;;;17.90;99.90;;;;;;5041556;28;19921;-89
2023/07/25 09:01:54;;;;;;;;;;;17.90;99.90;;;;;;5039323;28;19917;-89
2023/07/25 09:04:20;;;;;;;;;;;17.90;99.90;;;;;;5053830;28;19924;-88
2023/07/25 09:06:46;;;;;;;;;;;17.90;99.90;;;;;;5041449;28;20006;-89
2023/07/25 09:09:12;;;;;;;;;;;17.90;99.90;;;;;;5074808;28;19948;-87
2023/07/25 09:11:37;;;;;;;;;;;17.90;99.90;;;;;;5065666;28;19925;-89
2023/07/25 09:14:03;;;;;;;;;;;17.90;99.90;;;;;;5062751;28;19996;-89
2023/07/25 09:16:29;;;;;;;;;;;18.00;99.90;;;;;;5057201;28;19929;-90
2023/07/25 09:18:55;;;;;;;;;;;18.00;99.90;;;;;;5057072;28;20382;-90
2023/07/25 09:21:20;;;;;;;;;;;18.00;99.90;;;;;;5040713;28;19948;-88
2023/07/25 09:23:53;;;;;;;;;;;18.00;99.90;;;;;;5060711;28;20343;-88
2023/07/25 09:26:21;;;;;;;;;;;18.00;99.90;;;;;;5043847;28;20002;-88
2023/07/25 09:28:47;;;;;;;;;;;18.20;99.90;;;;;;5038836;28;19917;-89
2023/07/25 09:31:13;;;;;;;;;;;18.30;99.90;;;;;;5042167;28;19929;-91
2023/07/25 09:33:39;;;;;;;;;;;18.50;99.90;;;;;;5041606;28;20298;-90
2023/07/25 09:36:06;;;;;;;;;;;18.80;99.90;;;;;;5041450;28;19920;-90
2023/07/25 09:38:32;;;;;;;;;;;19.10;99.90;;;;;;5043794;28;19939;-90
2023/07/25 09:40:58;;;;;;;;;;;19.70;99.90;;;;;;5049787;28;20388;-89
2023/07/25 09:43:29;;;;;;;;;;;20.40;99.90;;;;;;5043339;28;19993;-89
2023/07/25 09:45:55;;;;;;;;;;;20.90;99.90;;;;;;5045856;28;19917;-91
2023/07/25 09:48:21;;;;;;;;;;;21.10;99.90;;;;;;5048291;28;19959;-90
2023/07/25 09:50:47;;;;;;;;;;;20.80;99.90;;;;;;5041906;28;19921;-89
2023/07/25 09:53:14;;;;;;;;;;;20.40;99.90;;;;;;5059812;28;20542;-89
2023/07/25 09:55:40;;;;;;;;;;;20.00;99.90;;;;;;5038030;28;19923;-90
2023/07/25 09:58:05;;;;;;;;;;;20.00;99.90;;;;;;5055865;28;20377;-90
2023/07/25 10:00:31;;;;;;;;;;;21.00;99.90;;;;;;5038427;28;19960;-92
2023/07/25 10:02:57;;;;;;;;;;;22.50;99.90;;;;;;5046649;28;19916;-92
2023/07/25 10:05:23;;;;;;;;;;;23.60;99.90;;;;;;5055289;28;19949;-91
2023/07/25 10:07:49;;;;;;;;;;;23.80;99.90;;;;;;5049008;28;20438;-90
2023/07/25 10:10:16;;;;;;;;;;;23.40;99.90;;;;;;5059297;28;19917;-90
2023/07/25 10:12:41;;;;;;;;;;;23.30;99.90;;;;;;5076794;28;19925;-90
2023/07/25 10:15:08;;;;;;;;;;;24.10;99.90;;;;;;5044000;28;19924;-90
2023/07/25 10:17:33;;;;;;;;;;;24.80;99.90;;;;;;5056798;28;19913;-89
2023/07/25 10:19:59;;;;;;;;;;;25.20;99.90;;;;;;5043673;28;20397;-88
2023/07/25 10:22:42;;;;;;;;;;;24.70;99.90;;;;;;5054234;28;19916;-91
2023/07/25 10:25:11;;;;;;;;;;;23.80;99.90;;;;;;5044335;28;20290;-91
2023/07/25 10:27:37;;;;;;;;;;;23.40;99.90;;;;;;5043950;28;20054;-89
2023/07/25 10:30:19;;;;;;;;;;;23.90;99.90;;;;;;5039507;28;20045;-91
2023/07/25 10:32:45;;;;;;;;;;;24.60;99.90;;;;;;5044622;28;19956;-88
2023/07/25 10:35:11;;;;;;;;;;;25.30;99.90;;;;;;5036027;28;19921;-88
2023/07/25 10:37:44;;;;;;;;;;;25.90;99.70;;;;;;5037975;28;19917;-88
2023/07/25 10:40:16;;;;;;;;;;;26.20;98.00;;;;;;5035479;28;19949;-86
2023/07/25 10:42:52;;;;;;;;;;;25.90;98.40;;;;;;5050232;28;20430;-87
2023/07/25 10:45:26;;;;;;;;;;;25.20;98.30;;;;;;5046667;28;19925;-86
2023/07/25 10:47:52;;;;;;;;;;;24.50;99.90;;;;;;5035265;28;19916;-87
2023/07/25 10:50:19;;;;;;;;;;;25.20;99.90;;;;;;5048042;28;20289;-86
2023/07/25 10:52:45;;;;;;;;;;;26.10;98.20;;;;;;5032146;28;19962;-87
2023/07/25 10:55:11;;;;;;;;;;;26.60;97.00;;;;;;5031481;28;19917;-87
2023/07/25 10:57:36;;;;;;;;;;;26.90;98.40;;;;;;5034271;28;19924;-87
2023/07/25 11:00:08;;;;;;;;;;;27.50;95.80;;;;;;5032377;28;19917;-87
2023/07/25 11:02:43;;;;;;;;;;;27.80;97.20;;;;;;5031355;28;19924;-86
2023/07/25 11:05:12;;;;;;;;;;;28.50;97.30;;;;;;5048045;28;19925;-87
2023/07/25 11:07:38;;;;;;;;;;;28.40;96.20;;;;;;5031192;28;19946;-87
2023/07/25 11:10:04;;;;;;;;;;;27.60;96.00;;;;;;5033643;28;19924;-88
2023/07/25 11:12:29;;;;;;;;;;;27.70;97.00;;;;;;5033614;28;19921;-87
2023/07/25 11:14:55;;;;;;;;;;;28.30;95.90;;;;;;5033435;28;19923;-87
2023/07/25 11:17:26;;;;;;;;;;;28.70;95.50;;;;;;5032813;28;19913;-88
2023/07/25 11:19:51;;;;;;;;;;;28.80;96.20;;;;;;5034249;28;19952;-87
2023/07/25 11:22:17;;;;;;;;;;;28.60;94.30;;;;;;5031791;28;20039;-86
2023/07/25 11:24:43;;;;;;;;;;;27.60;95.60;;;;;;5034137;28;19917;-87
2023/07/25 11:27:09;;;;;;;;;;;26.40;95.70;;;;;;5049186;28;19975;-87
2023/07/25 11:29:35;;;;;;;;;;;25.50;96.40;;;;;;5046982;28;19921;-86
2023/07/25 11:32:00;;;;;;;;;;;25.80;96.70;;;;;;5031083;28;20394;-87
2023/07/25 11:34:26;;;;;;;;;;;26.70;96.30;;;;;;5034200;28;20163;-86
2023/07/25 11:36:51;;;;;;;;;;;27.50;95.20;;;;;;5033054;28;20351;-88
2023/07/25 11:39:17;;;;;;;;;;;28.30;95.00;;;;;;5030033;28;19955;-88
2023/07/25 11:41:44;;;;;;;;;;;28.80;94.90;;;;;;5032184;28;19913;-87
2023/07/25 11:44:11;;;;;;;;;;;29.10;95.00;;;;;;5030994;28;19928;-87
2023/07/25 11:46:39;;;;;;;;;;;29.50;94.30;;;;;;5051416;28;19917;-87
2023/07/25 11:49:04;;;;;;;;;;;29.40;94.20;;;;;;5035597;28;20016;-88
2023/07/25 11:51:30;;;;;;;;;;;28.50;94.10;;;;;;5035722;28;20899;-88
2023/07/25 11:53:56;;;;;;;;;;;28.30;94.80;;;;;;5050942;28;20405;-89
2023/07/25 11:56:22;;;;;;;;;;;28.80;94.50;;;;;;5042053;28;19952;-87
2023/07/25 11:58:49;;;;;;;;;;;29.60;94.00;;;;;;5034258;28;19917;-88
2023/07/25 12:01:16;;;;;;;;;;;29.90;92.90;;;;;;5051034;28;19970;-87
2023/07/25 12:03:45;;;;;;;;;;;30.10;93.00;;;;;;5045231;28;20033;-86
2023/07/25 12:06:10;;;;;;;;;;;30.20;92.70;;;;;;5042684;28;20000;-89
2023/07/25 12:08:40;;;;;;;;;;;30.30;92.70;;;;;;5043385;28;20000;-89
2023/07/25 12:11:09;;;;;;;;;;;30.20;92.00;;;;;;5074974;28;19968;-87
2023/07/25 12:13:54;;;;;;;;;;;29.90;91.30;;;;;;5052645;28;19952;-87
2023/07/25 12:16:34;;;;;;;;;;;29.90;92.00;;;;;;5042641;28;19979;-87
2023/07/25 12:19:04;;;;;;;;;;;30.00;91.60;;;;;;5041554;28;19920;-87
2023/07/25 12:21:34;;;;;;;;;;;30.10;91.00;;;;;;5040929;28;19970;-88
2023/07/25 12:24:04;;;;;;;;;;;30.10;90.70;;;;;;5055177;28;19913;-87
2023/07/25 12:26:45;;;;;;;;;;;29.30;90.70;;;;;;5038289;28;20378;-88
2023/07/25 12:29:37;;;;;;;;;;;28.00;90.90;;;;;;5037075;28;20004;-87
2023/07/25 12:32:02;;;;;;;;;;;27.40;91.30;;;;;;5040917;28;19925;-87
2023/07/25 12:34:28;;;;;;;;;;;27.60;91.00;;;;;;5039955;28;19921;-87
2023/07/25 12:36:53;;;;;;;;;;;28.10;91.10;;;;;;5045919;28;19955;-89
2023/07/25 12:39:20;;;;;;;;;;;28.60;90.50;;;;;;5039496;28;19950;-86
2023/07/25 12:41:46;;;;;;;;;;;28.40;90.00;;;;;;5037088;28;19917;-87
2023/07/25 12:44:12;;;;;;;;;;;28.20;90.30;;;;;;5038331;28;19931;-87
2023/07/25 12:46:38;;;;;;;;;;;28.30;90.60;;;;;;5046819;28;20328;-87
2023/07/25 12:49:04;;;;;;;;;;;28.40;90.50;;;;;;5046918;28;19960;-87
2023/07/25 12:51:30;;;;;;;;;;;28.20;90.90;;;;;;5036725;28;20376;-87
2023/07/25 12:53:55;;;;;;;;;;;28.50;91.10;;;;;;5042108;28;19939;-89
2023/07/25 12:56:21;;;;;;;;;;;28.90;90.70;;;;;;5036853;28;20015;-90
2023/07/25 12:58:46;;;;;;;;;;;29.30;90.70;;;;;;5034499;28;19966;-90
2023/07/25 13:01:12;;;;;;;;;;;29.80;90.60;;;;;;5052672;28;20016;-88
2023/07/25 13:03:40;;;;;;;;;;;30.20;90.30;;;;;;5050870;28;20379;-87
2023/07/25 13:06:09;;;;;;;;;;;30.50;90.20;;;;;;5033559;28;19920;-88
2023/07/25 13:08:34;;;;;;;;;;;30.60;89.90;;;;;;5069365;28;19924;-90
2023/07/25 13:11:00;;;;;;;;;;;30.40;90.10;;;;;;5054450;28;19917;-87
2023/07/25 13:13:25;;;;;;;;;;;29.80;88.70;;;;;;5038052;28;19917;-89
2023/07/25 13:15:51;;;;;;;;;;;28.80;90.00;;;;;;5035778;28;21781;-90
2023/07/25 13:18:17;;;;;;;;;;;27.60;90.40;;;;;;5039057;28;20528;-86
2023/07/25 13:20:42;;;;;;;;;;;27.00;91.00;;;;;;5046405;28;20005;-87
2023/07/25 13:23:09;;;;;;;;;;;26.80;91.30;;;;;;5050919;28;19970;-88
2023/07/25 13:25:36;;;;;;;;;;;27.40;91.40;;;;;;5051538;28;19966;-88
2023/07/25 13:28:01;;;;;;;;;;;27.80;91.50;;;;;;5036524;28;19924;-88
2023/07/25 13:30:27;;;;;;;;;;;27.80;91.10;;;;;;5053122;28;20314;-87
2023/07/25 13:32:52;;;;;;;;;;;27.40;91.30;;;;;;5052447;28;19917;-85
2023/07/25 13:35:18;;;;;;;;;;;26.70;91.40;;;;;;5044545;28;19921;-87
2023/07/25 13:37:43;;;;;;;;;;;26.20;91.90;;;;;;5036369;28;19956;-86
2023/07/25 13:40:09;;;;;;;;;;;25.60;91.80;;;;;;5046425;28;20365;-87
2023/07/25 13:42:35;;;;;;;;;;;25.20;92.20;;;;;;5041946;28;19924;-86
2023/07/25 13:45:01;;;;;;;;;;;25.00;92.30;;;;;;5038386;28;19921;-85
2023/07/25 13:47:26;;;;;;;;;;;24.90;92.50;;;;;;5046452;28;19983;-88
2023/07/25 13:49:52;;;;;;;;;;;24.90;92.60;;;;;;5058515;28;19956;-86
2023/07/25 13:52:17;;;;;;;;;;;25.20;92.70;;;;;;5038839;28;19912;-89
2023/07/25 13:54:44;;;;;;;;;;;25.50;92.70;;;;;;5035304;28;20050;-85
2023/07/25 13:57:09;;;;;;;;;;;25.70;92.60;;;;;;5044692;28;20009;-86
2023/07/25 13:59:35;;;;;;;;;;;26.20;92.50;;;;;;5052225;28;20353;-86
2023/07/25 14:02:02;;;;;;;;;;;26.60;92.10;;;;;;5066586;28;19921;-84
2023/07/25 14:04:28;;;;;;;;;;;27.00;91.60;;;;;;5049758;28;20555;-83
2023/07/25 14:06:54;;;;;;;;;;;27.60;91.30;;;;;;5034522;28;19917;-85
2023/07/25 14:09:20;;;;;;;;;;;27.90;90.90;;;;;;5035804;28;19917;-86